Time;durP1;ratioP1;P1;durP2;ratioP2;P2;SDS_P1;SDS_P2;PMS_P1;PMS_P2;Temp;Humidity;BMP_temperature;BMP_pressure;BME280_temperature;BME280_humidity;BME280_pressure;Samples;Min_cycle;Max_cycle;Signal;HPM_P1;HPM_P2
2021/08/07 00:01:17;;;;;;;2.50;2.30;;;20.20;99.90;;;;;;5023295;28;20703;-73
2021/08/07 00:03:43;;;;;;;3.67;2.13;;;20.10;99.90;;;;;;5024360;28;20471;-73
2021/08/07 00:06:08;;;;;;;4.90;2.20;;;20.00;99.90;;;;;;5021966;28;20510;-73
2021/08/07 00:08:34;;;;;;;2.67;2.47;;;19.90;99.90;;;;;;5025473;28;20215;-72
2021/08/07 00:11:00;;;;;;;4.50;2.30;;;19.90;99.90;;;;;;5026264;28;20185;-72
2021/08/07 00:13:25;;;;;;;8.90;2.70;;;20.00;99.90;;;;;;5022393;28;20235;-73
2021/08/07 00:15:51;;;;;;;2.73;2.37;;;20.10;99.90;;;;;;5025779;28;20247;-73
2021/08/07 00:18:16;;;;;;;3.00;2.33;;;20.00;99.90;;;;;;5024140;28;20246;-73
2021/08/07 00:20:42;;;;;;;4.13;2.83;;;20.00;99.90;;;;;;5022465;28;20240;-73
2021/08/07 00:23:08;;;;;;;2.40;2.20;;;20.00;99.90;;;;;;5024359;28;20198;-73
2021/08/07 00:25:33;;;;;;;3.13;2.30;;;19.90;99.90;;;;;;5025273;28;20299;-73
2021/08/07 00:27:59;;;;;;;2.83;2.50;;;19.80;99.90;;;;;;5024697;28;20694;-73
2021/08/07 00:30:25;;;;;;;3.37;2.53;;;20.00;99.90;;;;;;5029618;28;20502;-73
2021/08/07 00:32:50;;;;;;;2.50;2.00;;;20.00;99.90;;;;;;5027161;28;20698;-72
2021/08/07 00:35:16;;;;;;;3.60;2.30;;;20.00;99.90;;;;;;5026264;28;20196;-73
2021/08/07 00:37:42;;;;;;;2.70;2.40;;;20.00;99.90;;;;;;5026971;28;20226;-73
2021/08/07 00:40:08;;;;;;;3.10;2.30;;;20.00;99.90;;;;;;5026590;28;20203;-73
2021/08/07 00:42:33;;;;;;;3.90;2.40;;;20.00;99.90;;;;;;5029290;28;20733;-73
2021/08/07 00:44:59;;;;;;;2.23;2.00;;;20.00;99.90;;;;;;5027282;28;20419;-72
2021/08/07 00:47:28;;;;;;;2.33;2.10;;;20.00;99.90;;;;;;5008267;28;20196;-73
2021/08/07 00:49:53;;;;;;;10.20;2.43;;;20.10;99.90;;;;;;5026617;28;20203;-73
2021/08/07 00:52:19;;;;;;;4.30;2.80;;;20.10;99.90;;;;;;5027922;28;20416;-73
2021/08/07 00:54:45;;;;;;;5.30;2.50;;;20.00;99.90;;;;;;5029568;28;20193;-73
2021/08/07 00:57:13;;;;;;;2.33;2.07;;;20.20;99.90;;;;;;5026461;28;20212;-73
2021/08/07 00:59:39;;;;;;;4.27;2.23;;;20.10;99.90;;;;;;5027975;28;20670;-73
2021/08/07 01:02:11;;;;;;;3.20;1.90;;;20.20;99.90;;;;;;5025219;28;20462;-73
2021/08/07 01:05:06;;;;;;;2.57;2.23;;;20.20;99.90;;;;;;5027038;28;20241;-73
2021/08/07 01:07:45;;;;;;;2.83;2.20;;;20.30;99.90;;;;;;5031046;28;20491;-73
2021/08/07 01:10:35;;;;;;;3.73;2.60;;;20.30;99.90;;;;;;5025918;28;20419;-73
2021/08/07 01:13:28;;;;;;;2.57;2.37;;;20.20;99.90;;;;;;5024959;28;20471;-73
2021/08/07 01:16:01;;;;;;;2.80;2.20;;;20.20;99.90;;;;;;5023866;28;20471;-72
2021/08/07 01:18:28;;;;;;;2.37;2.17;;;20.20;99.90;;;;;;5026109;28;20439;-73
2021/08/07 01:20:55;;;;;;;4.90;2.37;;;20.00;99.90;;;;;;5026700;28;20436;-73
2021/08/07 01:23:21;;;;;;;2.60;2.30;;;19.90;99.90;;;;;;5010246;28;20485;-73
2021/08/07 01:26:19;;;;;;;2.77;2.07;;;19.90;99.90;;;;;;5026673;28;20459;-72
2021/08/07 01:28:46;;;;;;;3.20;2.10;;;19.70;99.90;;;;;;5008926;28;21032;-73
2021/08/07 01:31:13;;;;;;;2.40;1.77;;;20.00;99.90;;;;;;5027464;28;20438;-73
2021/08/07 01:33:42;;;;;;;3.57;2.27;;;20.10;99.90;;;;;;5009987;28;20449;-73
2021/08/07 01:36:08;;;;;;;4.17;1.90;;;20.20;99.90;;;;;;5027174;28;20458;-73
2021/08/07 01:38:36;;;;;;;5.70;2.40;;;19.90;99.90;;;;;;5027611;28;20435;-73
2021/08/07 01:41:03;;;;;;;2.60;2.10;;;19.60;99.90;;;;;;5025875;28;20462;-73
2021/08/07 01:43:29;;;;;;;2.20;2.00;;;19.70;99.90;;;;;;5025602;28;20435;-73
2021/08/07 01:45:55;;;;;;;2.77;2.30;;;19.90;99.90;;;;;;5027283;28;21178;-73
2021/08/07 01:48:40;;;;;;;2.60;2.40;;;19.90;99.90;;;;;;5028065;28;20188;-71
2021/08/07 01:51:28;;;;;;;4.83;2.60;;;19.60;99.90;;;;;;5025335;28;20237;-72
2021/08/07 01:53:59;;;;;;;5.70;2.80;;;19.50;99.90;;;;;;5023921;28;20657;-71
2021/08/07 01:56:32;;;;;;;5.17;2.50;;;19.70;99.90;;;;;;5026164;28;20469;-72
2021/08/07 01:59:12;;;;;;;3.90;2.63;;;19.70;99.90;;;;;;5028712;28;20411;-72
2021/08/07 02:01:38;;;;;;;6.33;2.83;;;19.60;99.90;;;;;;5024348;28;20466;-71
2021/08/07 02:04:05;;;;;;;3.67;2.93;;;19.70;99.90;;;;;;5026838;28;20420;-73
2021/08/07 02:06:31;;;;;;;3.30;2.77;;;19.90;99.90;;;;;;5026460;28;20487;-72
2021/08/07 02:08:58;;;;;;;4.27;2.50;;;20.00;99.90;;;;;;5025932;28;20434;-73
2021/08/07 02:11:24;;;;;;;2.57;2.37;;;20.00;99.90;;;;;;5025161;28;20513;-72
2021/08/07 02:13:50;;;;;;;5.17;2.37;;;20.10;99.90;;;;;;5026312;28;20431;-72
2021/08/07 02:16:17;;;;;;;3.70;2.43;;;20.20;99.90;;;;;;5026891;28;20459;-72
2021/08/07 02:18:44;;;;;;;4.70;2.60;;;20.30;99.90;;;;;;5027336;28;20432;-73
2021/08/07 02:21:16;;;;;;;2.30;2.10;;;20.30;99.90;;;;;;5027151;28;20458;-74
2021/08/07 02:23:45;;;;;;;4.83;2.70;;;20.00;99.90;;;;;;5026714;28;20436;-73
2021/08/07 02:26:12;;;;;;;6.87;2.87;;;19.60;99.90;;;;;;5026955;28;20526;-73
2021/08/07 02:28:38;;;;;;;5.10;3.03;;;19.40;99.90;;;;;;5026572;28;20865;-73
2021/08/07 02:31:05;;;;;;;7.23;3.20;;;19.30;99.90;;;;;;5026769;28;20439;-72
2021/08/07 02:33:31;;;;;;;6.40;3.00;;;19.10;99.90;;;;;;5027478;28;20199;-73
2021/08/07 02:35:59;;;;;;;3.00;2.70;;;19.20;99.90;;;;;;5023246;28;20540;-72
2021/08/07 02:38:26;;;;;;;3.40;3.10;;;19.10;99.90;;;;;;5024511;28;21005;-71
2021/08/07 02:40:55;;;;;;;6.37;3.10;;;19.30;99.90;;;;;;5024574;28;20462;-72
2021/08/07 02:43:21;;;;;;;3.00;2.70;;;19.40;99.90;;;;;;5023893;28;20470;-72
2021/08/07 02:45:47;;;;;;;2.70;2.40;;;19.50;99.90;;;;;;5024448;28;20856;-72
2021/08/07 02:48:13;;;;;;;5.20;2.80;;;19.50;99.90;;;;;;5028646;28;20502;-71
2021/08/07 02:50:40;;;;;;;3.50;2.90;;;19.70;99.90;;;;;;5033824;28;20215;-72
2021/08/07 02:53:06;;;;;;;2.83;2.53;;;19.70;99.90;;;;;;5025146;28;20235;-71
2021/08/07 02:55:33;;;;;;;3.13;2.83;;;19.50;99.90;;;;;;5022698;28;20849;-71
2021/08/07 02:58:00;;;;;;;4.20;3.10;;;19.40;99.90;;;;;;5024755;28;20445;-72
2021/08/07 03:00:26;;;;;;;3.20;2.43;;;19.50;99.90;;;;;;5026011;28;20514;-72
2021/08/07 03:02:51;;;;;;;3.60;2.47;;;19.30;99.90;;;;;;5025963;28;20554;-72
2021/08/07 03:05:20;;;;;;;4.30;2.90;;;19.50;99.90;;;;;;5025622;28;20625;-72
2021/08/07 03:07:46;;;;;;;3.30;2.53;;;19.70;99.90;;;;;;5024835;28;20192;-72
2021/08/07 03:10:13;;;;;;;4.57;3.00;;;19.80;99.90;;;;;;5002227;28;21155;-72
2021/08/07 03:12:39;;;;;;;3.07;2.17;;;19.40;99.90;;;;;;5026273;28;20420;-71
2021/08/07 03:15:06;;;;;;;3.30;2.30;;;19.30;99.90;;;;;;5022777;28;20439;-71
2021/08/07 03:17:32;;;;;;;2.53;2.17;;;19.40;99.90;;;;;;5025365;28;20273;-72
2021/08/07 03:19:57;;;;;;;4.33;2.93;;;19.30;99.90;;;;;;5024115;28;20447;-72
2021/08/07 03:22:23;;;;;;;4.40;2.50;;;19.60;99.90;;;;;;5025060;28;20687;-73
2021/08/07 03:24:49;;;;;;;4.17;2.27;;;19.70;99.90;;;;;;5023897;28;20268;-73
2021/08/07 03:27:15;;;;;;;3.00;2.50;;;19.80;99.90;;;;;;5022514;28;20664;-73
2021/08/07 03:29:40;;;;;;;5.50;2.20;;;19.70;99.90;;;;;;5024117;28;20666;-73
2021/08/07 03:32:07;;;;;;;6.90;2.77;;;19.70;99.90;;;;;;5026725;28;20192;-73
2021/08/07 03:34:32;;;;;;;4.33;2.80;;;19.70;99.90;;;;;;5023410;28;20172;-73
2021/08/07 03:36:58;;;;;;;6.67;2.63;;;19.50;99.90;;;;;;5024256;28;20587;-73
2021/08/07 03:39:24;;;;;;;2.57;2.20;;;19.40;99.90;;;;;;5008188;28;20726;-73
2021/08/07 03:41:51;;;;;;;3.17;2.87;;;19.60;99.90;;;;;;5024920;28;20204;-73
2021/08/07 03:44:17;;;;;;;4.67;2.60;;;19.50;99.90;;;;;;5009633;28;20227;-73
2021/08/07 03:46:42;;;;;;;3.07;2.87;;;19.50;99.90;;;;;;5025706;28;20912;-73
2021/08/07 03:49:08;;;;;;;3.27;2.97;;;19.50;99.90;;;;;;5023434;28;20195;-73
2021/08/07 03:51:34;;;;;;;4.30;3.03;;;19.30;99.90;;;;;;5024459;28;20196;-73
2021/08/07 03:53:59;;;;;;;5.90;2.60;;;19.10;99.90;;;;;;5024561;28;20201;-73
2021/08/07 03:56:25;;;;;;;4.30;3.10;;;19.30;99.90;;;;;;5022566;28;20236;-73
2021/08/07 03:58:51;;;;;;;5.30;2.83;;;19.30;99.90;;;;;;5026136;28;20766;-73
2021/08/07 04:01:17;;;;;;;3.63;2.80;;;19.40;99.90;;;;;;5025669;28;20286;-73
2021/08/07 04:03:43;;;;;;;2.73;2.30;;;19.50;99.90;;;;;;5024553;28;20182;-74
2021/08/07 04:06:09;;;;;;;2.63;2.43;;;19.60;99.90;;;;;;5028219;28;20874;-73
2021/08/07 04:08:34;;;;;;;2.60;2.40;;;19.40;99.90;;;;;;5029603;28;20431;-73
2021/08/07 04:11:00;;;;;;;3.80;2.63;;;19.40;99.90;;;;;;5028268;28;20599;-73
2021/08/07 04:13:26;;;;;;;6.07;2.37;;;19.60;99.90;;;;;;5027439;28;20193;-73
2021/08/07 04:15:51;;;;;;;4.37;3.03;;;19.20;99.90;;;;;;5029505;28;20189;-73
2021/08/07 04:18:17;;;;;;;2.53;2.33;;;19.20;99.90;;;;;;5026670;28;20200;-73
2021/08/07 04:20:43;;;;;;;2.70;2.30;;;19.10;99.90;;;;;;5028273;28;20193;-73
2021/08/07 04:23:09;;;;;;;7.50;2.30;;;19.00;99.90;;;;;;5026784;28;20239;-73
2021/08/07 04:25:34;;;;;;;3.60;2.17;;;19.20;99.90;;;;;;5026750;28;20455;-73
2021/08/07 04:28:00;;;;;;;4.90;2.57;;;19.50;99.90;;;;;;5027938;28;20239;-73
2021/08/07 04:30:26;;;;;;;4.03;2.60;;;19.60;99.90;;;;;;5026662;28;20859;-72
2021/08/07 04:32:52;;;;;;;4.50;2.20;;;19.50;99.90;;;;;;5025267;28;20185;-72
2021/08/07 04:35:18;;;;;;;2.70;2.50;;;19.20;99.90;;;;;;5028592;28;21511;-73
2021/08/07 04:37:53;;;;;;;2.93;2.63;;;19.10;99.90;;;;;;5027550;28;20210;-73
2021/08/07 04:40:20;;;;;;;4.23;2.70;;;19.10;99.90;;;;;;5025612;28;20458;-73
2021/08/07 04:42:46;;;;;;;2.60;2.40;;;19.10;99.90;;;;;;5028213;28;20463;-73
2021/08/07 04:45:12;;;;;;;2.93;2.47;;;18.90;99.90;;;;;;5010095;28;20542;-73
2021/08/07 04:48:05;;;;;;;3.63;2.50;;;19.20;99.90;;;;;;5021760;28;20448;-72
2021/08/07 04:50:33;;;;;;;2.47;2.20;;;19.40;99.90;;;;;;5026571;28;20766;-73
2021/08/07 04:52:59;;;;;;;2.67;2.33;;;19.20;99.90;;;;;;5026979;28;20435;-73
2021/08/07 04:55:26;;;;;;;4.27;2.80;;;18.90;99.90;;;;;;5025612;28;20554;-71
2021/08/07 04:57:52;;;;;;;4.40;2.37;;;19.00;99.90;;;;;;5029515;28;20434;-72
2021/08/07 05:00:19;;;;;;;3.27;2.40;;;19.20;99.90;;;;;;5007061;28;20428;-72
2021/08/07 05:02:47;;;;;;;5.03;2.77;;;19.00;99.90;;;;;;5024695;28;20454;-73
2021/08/07 05:05:14;;;;;;;2.40;2.00;;;19.10;99.90;;;;;;5026501;28;20829;-72
2021/08/07 05:07:41;;;;;;;3.40;2.23;;;19.30;99.90;;;;;;5028132;28;20478;-72
2021/08/07 05:10:08;;;;;;;2.40;2.20;;;19.10;99.90;;;;;;5025035;28;20767;-72
2021/08/07 05:12:34;;;;;;;3.10;2.50;;;19.30;99.90;;;;;;5031302;28;20458;-73
2021/08/07 05:14:59;;;;;;;6.00;2.80;;;19.30;99.90;;;;;;5022445;28;20447;-74
2021/08/07 05:17:25;;;;;;;2.60;2.40;;;19.30;99.90;;;;;;5024414;28;20438;-73
2021/08/07 05:19:52;;;;;;;2.40;2.20;;;19.20;99.90;;;;;;5028925;28;20552;-72
2021/08/07 05:22:18;;;;;;;4.63;2.67;;;19.30;99.90;;;;;;5026976;28;20466;-74
2021/08/07 05:24:44;;;;;;;3.10;2.70;;;19.00;99.90;;;;;;5026695;28;20442;-72
2021/08/07 05:27:10;;;;;;;3.70;3.13;;;18.80;99.90;;;;;;5026179;28;20443;-72
2021/08/07 05:29:36;;;;;;;4.87;3.10;;;18.90;99.90;;;;;;5007841;28;20435;-72
2021/08/07 05:32:02;;;;;;;2.87;2.67;;;19.00;99.90;;;;;;5028300;28;21775;-72
2021/08/07 05:34:28;;;;;;;3.80;2.90;;;19.20;99.90;;;;;;5027065;28;20196;-72
2021/08/07 05:36:54;;;;;;;6.10;2.67;;;19.60;99.90;;;;;;5009449;28;20474;-72
2021/08/07 05:39:19;;;;;;;5.37;2.67;;;19.80;99.90;;;;;;5027673;28;20186;-73
2021/08/07 05:41:45;;;;;;;2.77;2.37;;;20.00;99.90;;;;;;5027418;28;20208;-72
2021/08/07 05:44:11;;;;;;;3.23;2.70;;;20.00;99.90;;;;;;5024889;28;20216;-74
2021/08/07 05:46:36;;;;;;;3.80;2.30;;;20.20;99.90;;;;;;5027492;28;20771;-73
2021/08/07 05:49:05;;;;;;;3.57;2.50;;;20.10;99.90;;;;;;5007782;28;20281;-73
2021/08/07 05:51:35;;;;;;;5.07;2.77;;;20.00;99.90;;;;;;5024200;28;20192;-72
2021/08/07 05:54:01;;;;;;;4.83;2.67;;;20.10;99.90;;;;;;5027199;28;20427;-72
2021/08/07 05:56:27;;;;;;;4.33;3.00;;;20.10;99.90;;;;;;5026262;28;20492;-72
2021/08/07 05:58:53;;;;;;;3.63;2.70;;;20.20;99.90;;;;;;5023397;28;21063;-72
2021/08/07 06:01:18;;;;;;;2.73;2.50;;;19.80;99.90;;;;;;5009624;28;20292;-72
2021/08/07 06:03:44;;;;;;;3.33;3.03;;;20.00;99.90;;;;;;5024435;28;20177;-72
2021/08/07 06:06:09;;;;;;;3.00;2.30;;;20.00;99.90;;;;;;5026113;28;20212;-73
2021/08/07 06:08:35;;;;;;;2.60;2.40;;;19.90;99.90;;;;;;5026313;28;20996;-72
2021/08/07 06:11:01;;;;;;;7.73;2.70;;;20.20;99.90;;;;;;5024822;28;20184;-72
2021/08/07 06:13:27;;;;;;;2.47;2.27;;;20.30;99.90;;;;;;5027324;28;20188;-72
2021/08/07 06:15:53;;;;;;;4.00;2.80;;;20.30;99.90;;;;;;5025075;28;20215;-72
2021/08/07 06:18:19;;;;;;;2.70;2.50;;;20.40;99.90;;;;;;5023505;28;20443;-72
2021/08/07 06:20:45;;;;;;;6.83;2.70;;;20.60;99.90;;;;;;5028004;28;20633;-72
2021/08/07 06:23:10;;;;;;;4.30;2.70;;;20.70;99.90;;;;;;5025740;28;20246;-72
2021/08/07 06:25:36;;;;;;;3.90;2.20;;;20.80;99.90;;;;;;5021801;28;20486;-72
2021/08/07 06:28:03;;;;;;;2.23;2.03;;;20.90;99.90;;;;;;5005424;28;20212;-73
2021/08/07 06:30:29;;;;;;;2.90;2.23;;;20.90;99.90;;;;;;5022867;28;20196;-73
2021/08/07 06:32:55;;;;;;;4.07;2.60;;;20.90;99.90;;;;;;5025770;28;20856;-73
2021/08/07 06:35:21;;;;;;;3.13;2.40;;;21.00;99.90;;;;;;5024681;28;21999;-72
2021/08/07 06:37:47;;;;;;;2.53;2.33;;;21.00;99.90;;;;;;5010052;28;20184;-72
2021/08/07 06:40:14;;;;;;;3.03;2.53;;;20.90;99.90;;;;;;5023900;28;20621;-73
2021/08/07 06:42:40;;;;;;;3.83;2.73;;;20.90;99.90;;;;;;5027014;28;20282;-73
2021/08/07 06:45:07;;;;;;;3.10;2.73;;;21.20;99.90;;;;;;5026148;28;20434;-72
2021/08/07 06:47:33;;;;;;;9.70;4.03;;;21.40;99.90;;;;;;5007620;28;20442;-73
2021/08/07 06:49:59;;;;;;;3.10;2.47;;;21.50;99.90;;;;;;5025739;28;20426;-73
2021/08/07 06:52:25;;;;;;;4.20;2.73;;;21.50;99.90;;;;;;5025843;28;20431;-73
2021/08/07 06:54:51;;;;;;;3.93;2.30;;;21.60;99.90;;;;;;5025961;28;20693;-73
2021/08/07 06:57:21;;;;;;;2.73;2.20;;;21.80;99.90;;;;;;5025788;28;20490;-73
2021/08/07 06:59:47;;;;;;;3.20;2.27;;;21.60;99.90;;;;;;5023633;28;20267;-72
2021/08/07 07:02:12;;;;;;;2.47;2.27;;;21.70;99.90;;;;;;5008853;28;20605;-73
2021/08/07 07:04:38;;;;;;;5.63;2.30;;;21.40;99.90;;;;;;5025037;28;20708;-74
2021/08/07 07:07:05;;;;;;;2.33;2.07;;;21.30;99.90;;;;;;5024050;28;20257;-72
2021/08/07 07:09:31;;;;;;;2.87;2.23;;;21.10;99.90;;;;;;5024713;28;20255;-72
2021/08/07 07:11:57;;;;;;;4.90;2.33;;;21.00;99.90;;;;;;5024931;28;20411;-73
2021/08/07 07:14:23;;;;;;;2.60;2.40;;;20.70;99.90;;;;;;5026324;28;20533;-73
2021/08/07 07:16:48;;;;;;;2.30;2.10;;;20.90;99.90;;;;;;5024214;28;20215;-73
2021/08/07 07:19:15;;;;;;;6.87;3.10;;;20.80;99.90;;;;;;5023316;28;20189;-72
2021/08/07 07:21:41;;;;;;;4.47;2.60;;;20.90;99.90;;;;;;5024258;28;20211;-72
2021/08/07 07:24:06;;;;;;;3.10;1.80;;;20.80;99.90;;;;;;5023312;28;21593;-72
2021/08/07 07:26:33;;;;;;;3.70;2.47;;;20.90;99.90;;;;;;5026368;28;20443;-72
2021/08/07 07:28:59;;;;;;;3.47;2.67;;;20.90;99.90;;;;;;5024744;28;20196;-72
2021/08/07 07:31:26;;;;;;;3.20;2.43;;;21.00;99.90;;;;;;5007615;28;20487;-72
2021/08/07 07:33:52;;;;;;;3.47;2.60;;;21.10;99.90;;;;;;5024274;28;20783;-73
2021/08/07 07:36:18;;;;;;;4.97;2.60;;;21.00;99.90;;;;;;5022197;28;20454;-73
2021/08/07 07:38:43;;;;;;;3.87;2.30;;;21.10;99.90;;;;;;5024372;28;20427;-72
2021/08/07 07:41:10;;;;;;;2.37;1.90;;;21.20;99.90;;;;;;5007741;28;20200;-73
2021/08/07 07:43:36;;;;;;;5.03;2.93;;;21.30;99.90;;;;;;5022594;28;20740;-73
2021/08/07 07:46:02;;;;;;;4.50;2.10;;;21.30;99.90;;;;;;5023599;28;20467;-72
2021/08/07 07:48:28;;;;;;;8.10;2.40;;;21.50;99.90;;;;;;5025729;28;20594;-73
2021/08/07 07:50:54;;;;;;;10.67;2.57;;;21.70;99.90;;;;;;5005769;28;20497;-73
2021/08/07 07:53:20;;;;;;;3.00;2.27;;;21.70;99.90;;;;;;5024010;28;20223;-73
2021/08/07 07:55:45;;;;;;;2.20;1.97;;;21.70;99.90;;;;;;5024804;28;20216;-73
2021/08/07 07:58:11;;;;;;;2.43;2.10;;;21.70;99.90;;;;;;5025105;28;20185;-74
2021/08/07 08:00:37;;;;;;;4.53;2.47;;;21.60;99.90;;;;;;5026162;28;20242;-74
2021/08/07 08:03:03;;;;;;;2.57;2.30;;;21.80;99.90;;;;;;5004991;28;20235;-73
2021/08/07 08:05:29;;;;;;;3.07;2.37;;;21.90;99.90;;;;;;5023073;28;20326;-74
2021/08/07 08:07:54;;;;;;;6.23;2.43;;;21.80;99.90;;;;;;5022403;28;20801;-72
2021/08/07 08:10:20;;;;;;;3.80;2.20;;;21.80;99.90;;;;;;5022634;28;20431;-72
2021/08/07 08:12:46;;;;;;;5.40;3.60;;;21.80;99.90;;;;;;5022937;28;20189;-73
2021/08/07 08:15:13;;;;;;;2.37;2.17;;;21.90;99.90;;;;;;5025177;28;20188;-73
2021/08/07 08:17:39;;;;;;;2.83;2.40;;;22.00;99.90;;;;;;5022032;28;20258;-73
2021/08/07 08:20:06;;;;;;;3.20;2.07;;;22.00;99.90;;;;;;5024199;28;20439;-74
2021/08/07 08:22:32;;;;;;;4.03;2.27;;;22.10;99.90;;;;;;5024798;28;20262;-74
2021/08/07 08:24:58;;;;;;;3.80;2.27;;;22.10;99.90;;;;;;5022303;28;20807;-73
2021/08/07 08:27:23;;;;;;;6.13;3.00;;;22.20;99.90;;;;;;5024068;28;20201;-73
2021/08/07 08:29:49;;;;;;;4.73;2.40;;;22.20;99.90;;;;;;5023485;28;20814;-75
2021/08/07 08:32:15;;;;;;;3.03;2.27;;;22.20;99.90;;;;;;5028459;28;20278;-75
2021/08/07 08:34:41;;;;;;;2.97;2.20;;;22.30;99.90;;;;;;5005723;28;20286;-74
2021/08/07 08:37:07;;;;;;;5.30;2.30;;;22.30;99.90;;;;;;5025585;28;21074;-75
2021/08/07 08:39:33;;;;;;;3.63;2.30;;;22.50;99.90;;;;;;5025001;28;20836;-74
2021/08/07 08:42:00;;;;;;;3.60;2.40;;;22.50;99.90;;;;;;5021175;28;20467;-73
2021/08/07 08:44:26;;;;;;;2.50;2.30;;;22.40;99.90;;;;;;5025943;28;20690;-73
2021/08/07 08:46:52;;;;;;;2.37;2.17;;;22.30;99.90;;;;;;5022832;28;20490;-77
2021/08/07 08:49:20;;;;;;;2.67;2.47;;;22.30;99.90;;;;;;5023718;28;20427;-74
2021/08/07 08:51:48;;;;;;;4.97;2.57;;;22.30;99.90;;;;;;5024767;28;20457;-73
2021/08/07 08:54:18;;;;;;;4.40;3.10;;;22.30;99.90;;;;;;5006740;28;20804;-73
2021/08/07 08:56:48;;;;;;;6.80;3.67;;;22.20;99.90;;;;;;5029216;28;20524;-78
2021/08/07 08:59:18;;;;;;;4.10;2.63;;;22.30;99.90;;;;;;5010820;28;20438;-74
2021/08/07 09:01:44;;;;;;;5.70;2.80;;;22.20;99.90;;;;;;5027636;28;20474;-73
2021/08/07 09:04:09;;;;;;;3.80;2.50;;;22.20;99.90;;;;;;4993114;28;20431;-74
2021/08/07 09:06:35;;;;;;;2.80;2.57;;;22.30;99.90;;;;;;5027573;28;20219;-74
2021/08/07 09:09:01;;;;;;;3.03;2.60;;;22.30;99.90;;;;;;5026297;28;20188;-76
2021/08/07 09:11:28;;;;;;;3.77;2.17;;;22.50;99.90;;;;;;5024421;28;20191;-73
2021/08/07 09:14:19;;;;;;;7.93;2.57;;;22.50;99.90;;;;;;5012003;28;20200;-74
2021/08/07 09:17:00;;;;;;;5.53;2.50;;;22.70;99.90;;;;;;5026309;28;20461;-73
2021/08/07 09:19:27;;;;;;;2.83;2.63;;;22.70;99.90;;;;;;5027467;28;20973;-73
2021/08/07 09:22:20;;;;;;;3.67;2.50;;;22.80;99.90;;;;;;5027483;28;20483;-73
2021/08/07 09:25:09;;;;;;;2.30;2.10;;;22.80;99.90;;;;;;5025967;28;20482;-74
2021/08/07 09:27:44;;;;;;;3.93;3.43;;;22.80;99.90;;;;;;5024686;28;20455;-73
2021/08/07 09:30:18;;;;;;;7.27;2.73;;;22.90;99.90;;;;;;5024204;28;20527;-72
2021/08/07 09:33:09;;;;;;;3.10;2.50;;;22.90;99.90;;;;;;5025245;28;21006;-73
2021/08/07 09:35:38;;;;;;;3.10;2.60;;;23.00;99.90;;;;;;5027298;28;20447;-73
2021/08/07 09:38:14;;;;;;;4.03;2.60;;;23.10;99.90;;;;;;5027598;28;20439;-73
2021/08/07 09:40:52;;;;;;;3.43;3.07;;;23.40;99.90;;;;;;5024643;28;20944;-72
2021/08/07 09:43:25;;;;;;;2.93;2.27;;;23.20;99.90;;;;;;5023394;28;21345;-73
2021/08/07 09:45:57;;;;;;;3.10;2.80;;;23.40;99.90;;;;;;5025155;28;20466;-72
2021/08/07 09:48:43;;;;;;;5.53;2.30;;;23.40;99.90;;;;;;5021274;28;20958;-73
2021/08/07 09:51:24;;;;;;;4.53;2.67;;;23.30;99.90;;;;;;5020691;28;20442;-73
2021/08/07 09:54:00;;;;;;;2.80;2.20;;;23.20;99.90;;;;;;5021778;28;20441;-73
2021/08/07 09:56:26;;;;;;;7.10;2.60;;;23.30;99.90;;;;;;5022248;28;20993;-73
2021/08/07 09:59:13;;;;;;;5.37;2.90;;;23.00;99.90;;;;;;5024227;28;20439;-73
2021/08/07 10:01:39;;;;;;;4.77;2.67;;;23.00;99.90;;;;;;5021195;28;20509;-73
2021/08/07 10:04:14;;;;;;;3.53;2.77;;;23.00;99.90;;;;;;5022582;28;20436;-73
2021/08/07 10:06:41;;;;;;;3.03;2.77;;;23.00;99.90;;;;;;5024231;28;20223;-73
2021/08/07 10:09:07;;;;;;;4.40;2.60;;;23.00;99.90;;;;;;5023374;28;20431;-73
2021/08/07 10:11:34;;;;;;;4.30;3.23;;;23.00;99.90;;;;;;5029590;28;20434;-74
2021/08/07 10:14:00;;;;;;;4.13;2.30;;;23.00;99.90;;;;;;5026250;28;20489;-72
2021/08/07 10:16:27;;;;;;;3.23;2.50;;;23.20;99.90;;;;;;5024262;28;21004;-75
2021/08/07 10:18:53;;;;;;;3.40;2.90;;;23.10;99.90;;;;;;5025963;28;20423;-72
2021/08/07 10:21:20;;;;;;;4.90;2.90;;;23.40;99.90;;;;;;5026152;28;20520;-72
2021/08/07 10:23:52;;;;;;;2.50;2.30;;;23.60;99.90;;;;;;5025153;28;20940;-72
2021/08/07 10:26:20;;;;;;;3.50;2.70;;;23.40;99.90;;;;;;5025233;28;20459;-72
2021/08/07 10:28:56;;;;;;;3.67;2.30;;;23.50;99.90;;;;;;5025692;28;20548;-74
2021/08/07 10:31:25;;;;;;;3.40;2.57;;;23.60;99.90;;;;;;5024609;28;20807;-73
2021/08/07 10:33:55;;;;;;;7.17;2.97;;;23.30;99.90;;;;;;5027457;28;21088;-74
2021/08/07 10:36:23;;;;;;;3.33;3.07;;;23.30;99.90;;;;;;5025682;28;21455;-72
2021/08/07 10:38:51;;;;;;;3.70;2.20;;;23.00;99.90;;;;;;5020154;28;21259;-72
2021/08/07 10:41:17;;;;;;;4.80;2.30;;;22.90;99.90;;;;;;5025054;28;20419;-73
2021/08/07 10:43:48;;;;;;;2.90;2.60;;;23.10;99.90;;;;;;5023722;28;20527;-73
2021/08/07 10:46:16;;;;;;;3.50;2.70;;;23.20;99.90;;;;;;5025853;28;20455;-75
2021/08/07 10:48:47;;;;;;;2.57;2.30;;;23.10;99.90;;;;;;5024453;28;20525;-74
2021/08/07 10:51:19;;;;;;;6.53;2.30;;;23.00;99.90;;;;;;5024579;28;20431;-75
2021/08/07 10:53:46;;;;;;;6.47;2.87;;;22.90;99.90;;;;;;5017528;28;20443;-73
2021/08/07 10:56:36;;;;;;;3.27;2.40;;;22.80;99.90;;;;;;5027215;28;20459;-73
2021/08/07 10:59:10;;;;;;;6.33;2.57;;;22.70;99.90;;;;;;5025103;28;20459;-74
2021/08/07 11:01:46;;;;;;;6.07;2.77;;;22.70;99.90;;;;;;5023976;28;20987;-74
2021/08/07 11:04:24;;;;;;;3.87;3.00;;;22.70;99.90;;;;;;5025814;28;20435;-74
2021/08/07 11:06:53;;;;;;;3.97;3.47;;;22.70;99.90;;;;;;5022369;28;20469;-75
2021/08/07 11:09:41;;;;;;;3.60;3.17;;;22.70;99.90;;;;;;5022526;28;20441;-75
2021/08/07 11:12:06;;;;;;;2.80;2.40;;;22.70;99.90;;;;;;5028753;28;20435;-75
2021/08/07 11:14:35;;;;;;;3.73;2.70;;;22.80;99.90;;;;;;5005074;28;20488;-75
2021/08/07 11:20:18;;;;;;;3.40;2.40;;;22.70;99.90;;;;;;5030826;28;20866;-74
2021/08/07 11:22:44;;;;;;;3.33;2.53;;;22.70;99.90;;;;;;5022990;28;20466;-75
2021/08/07 11:25:17;;;;;;;5.77;2.67;;;22.70;99.90;;;;;;5026774;28;20435;-75
2021/08/07 11:30:42;;;;;;;5.13;2.60;;;22.50;99.90;;;;;;5025555;28;20650;-75
2021/08/07 11:33:08;;;;;;;3.40;2.33;;;22.50;99.90;;;;;;5028669;28;20427;-76
2021/08/07 11:35:42;;;;;;;2.57;2.20;;;22.30;99.90;;;;;;5027150;28;20459;-72
2021/08/07 11:38:16;;;;;;;6.80;3.00;;;22.10;99.90;;;;;;5026741;28;20184;-73
2021/08/07 11:40:57;;;;;;;6.73;2.60;;;22.30;99.90;;;;;;5013477;28;20434;-73
2021/08/07 11:43:40;;;;;;;5.03;2.70;;;22.40;99.90;;;;;;5027821;28;20915;-74
2021/08/07 11:46:09;;;;;;;3.23;2.63;;;22.20;99.90;;;;;;5023950;28;20470;-74
2021/08/07 11:48:49;;;;;;;5.40;2.70;;;22.20;99.90;;;;;;5024924;28;20484;-74
2021/08/07 11:51:26;;;;;;;6.13;2.90;;;22.00;99.90;;;;;;5024893;28;20431;-74
2021/08/07 11:53:53;;;;;;;3.20;2.40;;;22.10;99.90;;;;;;5026530;28;20434;-73
2021/08/07 11:56:23;;;;;;;4.27;2.97;;;21.80;99.90;;;;;;5025307;28;20478;-74
2021/08/07 11:58:51;;;;;;;3.30;3.00;;;21.70;99.90;;;;;;5024778;28;20439;-73
2021/08/07 12:01:18;;;;;;;2.93;2.63;;;21.10;99.90;;;;;;5025650;28;20439;-73
2021/08/07 12:03:49;;;;;;;3.43;2.57;;;20.90;99.90;;;;;;5028272;28;20910;-73
2021/08/07 12:06:17;;;;;;;4.23;2.43;;;20.70;99.90;;;;;;5027348;28;20461;-73
2021/08/07 12:08:43;;;;;;;4.37;2.97;;;20.50;99.90;;;;;;5027133;28;20431;-73
2021/08/07 12:11:14;;;;;;;2.70;2.50;;;20.20;99.90;;;;;;5025450;28;20967;-73
2021/08/07 12:13:42;;;;;;;3.30;2.73;;;20.00;99.90;;;;;;5003823;28;20452;-74
2021/08/07 12:16:14;;;;;;;5.10;2.97;;;19.80;99.90;;;;;;5024823;28;20454;-73
2021/08/07 12:18:53;;;;;;;5.30;2.87;;;19.70;99.90;;;;;;5022592;28;20431;-72
2021/08/07 12:21:26;;;;;;;7.50;3.00;;;19.70;99.90;;;;;;5025737;28;20444;-74
2021/08/07 12:23:58;;;;;;;5.37;2.80;;;19.60;99.90;;;;;;5022591;28;20431;-74
2021/08/07 12:26:27;;;;;;;3.53;2.60;;;19.70;99.90;;;;;;5025419;28;20451;-74
2021/08/07 12:28:59;;;;;;;4.77;3.20;;;19.70;99.90;;;;;;5027013;28;20916;-74
2021/08/07 12:31:47;;;;;;;6.17;2.97;;;19.70;99.90;;;;;;5027242;28;20580;-74
2021/08/07 12:34:18;;;;;;;3.43;2.20;;;19.60;99.90;;;;;;5030466;28;20518;-74
2021/08/07 12:36:56;;;;;;;3.60;2.67;;;19.60;99.90;;;;;;5030155;28;20542;-73
2021/08/07 12:39:22;;;;;;;4.80;3.70;;;19.70;99.90;;;;;;5026999;28;21027;-74
2021/08/07 12:41:49;;;;;;;4.63;2.70;;;19.60;99.90;;;;;;5027665;28;20528;-74
2021/08/07 12:44:28;;;;;;;4.20;2.97;;;19.60;99.90;;;;;;5027437;28;20514;-74
2021/08/07 12:46:56;;;;;;;5.50;2.77;;;19.60;99.90;;;;;;5027344;28;20494;-74
2021/08/07 12:49:42;;;;;;;4.80;3.03;;;19.60;99.90;;;;;;5011758;28;20527;-74
2021/08/07 12:52:14;;;;;;;5.60;3.00;;;19.60;99.90;;;;;;5024647;28;20772;-74
2021/08/07 12:54:41;;;;;;;4.80;2.40;;;19.60;99.90;;;;;;5009106;28;20435;-74
2021/08/07 12:57:24;;;;;;;3.03;2.60;;;19.80;99.90;;;;;;5010146;28;20489;-74
2021/08/07 12:59:51;;;;;;;3.23;3.03;;;19.80;99.90;;;;;;5029231;28;20437;-74
2021/08/07 13:02:17;;;;;;;2.40;2.20;;;19.90;99.90;;;;;;5027672;28;20470;-74